sensor_id;sensor_type;location;lat;lon;timestamp;P1;durP1;ratioP1;P2;durP2;ratioP2
59006;SDS011;44792;52.760;6.726;2022-09-30T00:01:06;7.72;;;5.28;;
59006;SDS011;44792;52.760;6.726;2022-09-30T00:03:32;5.05;;;4.53;;
59006;SDS011;44792;52.760;6.726;2022-09-30T00:06:01;8.38;;;5.30;;
59006;SDS011;44792;52.760;6.726;2022-09-30T00:08:28;9.30;;;5.97;;
59006;SDS011;44792;52.760;6.726;2022-09-30T00:11:13;7.22;;;5.85;;
59006;SDS011;44792;52.760;6.726;2022-09-30T00:13:40;8.10;;;6.15;;
59006;SDS011;44792;52.760;6.726;2022-09-30T00:16:07;8.57;;;6.47;;
59006;SDS011;44792;52.760;6.726;2022-09-30T00:18:34;11.77;;;6.68;;
59006;SDS011;44792;52.760;6.726;2022-09-30T00:21:01;11.32;;;8.35;;
59006;SDS011;44792;52.760;6.726;2022-09-30T00:23:26;11.77;;;9.07;;
59006;SDS011;44792;52.760;6.726;2022-09-30T00:25:56;11.68;;;8.32;;
59006;SDS011;44792;52.760;6.726;2022-09-30T00:28:23;12.73;;;7.75;;
59006;SDS011;44792;52.760;6.726;2022-09-30T00:30:49;9.93;;;7.88;;
59006;SDS011;44792;52.760;6.726;2022-09-30T00:33:14;12.43;;;7.97;;
59006;SDS011;44792;52.760;6.726;2022-09-30T00:35:40;9.18;;;7.55;;
59006;SDS011;44792;52.760;6.726;2022-09-30T00:38:05;8.57;;;7.10;;
59006;SDS011;44792;52.760;6.726;2022-09-30T00:40:31;9.20;;;7.35;;
59006;SDS011;44792;52.760;6.726;2022-09-30T00:42:57;8.35;;;7.50;;
59006;SDS011;44792;52.760;6.726;2022-09-30T00:45:24;6.90;;;6.13;;
59006;SDS011;44792;52.760;6.726;2022-09-30T00:47:53;7.55;;;6.63;;
59006;SDS011;44792;52.760;6.726;2022-09-30T00:50:27;6.95;;;5.90;;
59006;SDS011;44792;52.760;6.726;2022-09-30T00:57:54;5.68;;;5.18;;
59006;SDS011;44792;52.760;6.726;2022-09-30T01:00:21;5.88;;;5.20;;
59006;SDS011;44792;52.760;6.726;2022-09-30T01:02:46;6.25;;;5.65;;
59006;SDS011;44792;52.760;6.726;2022-09-30T01:05:13;8.30;;;5.25;;
59006;SDS011;44792;52.760;6.726;2022-09-30T01:07:39;5.80;;;4.43;;
59006;SDS011;44792;52.760;6.726;2022-09-30T01:10:05;5.68;;;5.18;;
59006;SDS011;44792;52.760;6.726;2022-09-30T01:12:31;7.00;;;5.00;;
59006;SDS011;44792;52.760;6.726;2022-09-30T01:14:57;6.35;;;5.68;;
59006;SDS011;44792;52.760;6.726;2022-09-30T01:34:20;6.80;;;6.03;;
59006;SDS011;44792;52.760;6.726;2022-09-30T01:42:47;5.78;;;5.25;;
59006;SDS011;44792;52.760;6.726;2022-09-30T01:45:30;6.10;;;5.50;;
59006;SDS011;44792;52.760;6.726;2022-09-30T01:47:58;6.65;;;5.95;;
59006;SDS011;44792;52.760;6.726;2022-09-30T01:50:57;7.10;;;6.03;;
59006;SDS011;44792;52.760;6.726;2022-09-30T01:53:39;6.32;;;5.72;;
59006;SDS011;44792;52.760;6.726;2022-09-30T01:56:12;6.85;;;6.18;;
59006;SDS011;44792;52.760;6.726;2022-09-30T02:01:13;7.82;;;5.57;;
59006;SDS011;44792;52.760;6.726;2022-09-30T02:03:46;5.80;;;5.30;;
59006;SDS011;44792;52.760;6.726;2022-09-30T02:06:15;6.45;;;5.85;;
59006;SDS011;44792;52.760;6.726;2022-09-30T02:08:50;6.50;;;5.90;;
59006;SDS011;44792;52.760;6.726;2022-09-30T02:11:22;7.03;;;5.63;;
59006;SDS011;44792;52.760;6.726;2022-09-30T02:14:05;7.65;;;5.57;;
59006;SDS011;44792;52.760;6.726;2022-09-30T02:16:46;7.63;;;6.32;;
59006;SDS011;44792;52.760;6.726;2022-09-30T02:22:03;6.57;;;5.93;;
59006;SDS011;44792;52.760;6.726;2022-09-30T02:24:52;6.68;;;5.97;;
59006;SDS011;44792;52.760;6.726;2022-09-30T02:27:23;6.88;;;6.10;;
59006;SDS011;44792;52.760;6.726;2022-09-30T02:29:58;6.38;;;5.82;;
59006;SDS011;44792;52.760;6.726;2022-09-30T02:32:32;7.20;;;5.57;;
59006;SDS011;44792;52.760;6.726;2022-09-30T02:35:05;6.60;;;5.95;;
59006;SDS011;44792;52.760;6.726;2022-09-30T02:37:44;6.57;;;5.97;;
59006;SDS011;44792;52.760;6.726;2022-09-30T02:40:23;6.10;;;5.50;;
59006;SDS011;44792;52.760;6.726;2022-09-30T02:42:52;6.85;;;6.15;;
59006;SDS011;44792;52.760;6.726;2022-09-30T02:45:19;6.82;;;6.18;;
59006;SDS011;44792;52.760;6.726;2022-09-30T02:50:48;5.55;;;4.93;;
59006;SDS011;44792;52.760;6.726;2022-09-30T02:54:04;5.97;;;5.38;;
59006;SDS011;44792;52.760;6.726;2022-09-30T02:58:41;6.45;;;5.85;;
59006;SDS011;44792;52.760;6.726;2022-09-30T03:01:09;5.85;;;5.32;;
59006;SDS011;44792;52.760;6.726;2022-09-30T03:03:40;9.93;;;5.60;;
59006;SDS011;44792;52.760;6.726;2022-09-30T03:06:12;7.90;;;5.97;;
59006;SDS011;44792;52.760;6.726;2022-09-30T03:08:39;6.03;;;5.40;;
59006;SDS011;44792;52.760;6.726;2022-09-30T03:11:05;6.38;;;5.32;;
59006;SDS011;44792;52.760;6.726;2022-09-30T03:13:42;6.43;;;4.68;;
59006;SDS011;44792;52.760;6.726;2022-09-30T03:30:54;4.57;;;4.28;;
59006;SDS011;44792;52.760;6.726;2022-09-30T03:33:50;4.70;;;4.30;;
59006;SDS011;44792;52.760;6.726;2022-09-30T03:36:26;4.93;;;4.43;;
59006;SDS011;44792;52.760;6.726;2022-09-30T03:44:34;4.30;;;3.97;;
59006;SDS011;44792;52.760;6.726;2022-09-30T03:47:05;4.43;;;4.03;;
59006;SDS011;44792;52.760;6.726;2022-09-30T03:49:35;5.18;;;4.35;;
59006;SDS011;44792;52.760;6.726;2022-09-30T03:52:04;5.53;;;4.15;;
59006;SDS011;44792;52.760;6.726;2022-09-30T03:54:31;4.30;;;3.90;;
59006;SDS011;44792;52.760;6.726;2022-09-30T03:56:57;4.10;;;3.80;;
59006;SDS011;44792;52.760;6.726;2022-09-30T03:59:27;4.75;;;4.25;;
59006;SDS011;44792;52.760;6.726;2022-09-30T04:01:53;3.83;;;3.53;;
59006;SDS011;44792;52.760;6.726;2022-09-30T04:04:19;3.60;;;3.30;;
59006;SDS011;44792;52.760;6.726;2022-09-30T04:06:45;3.72;;;3.42;;
59006;SDS011;44792;52.760;6.726;2022-09-30T04:09:11;3.92;;;3.53;;
59006;SDS011;44792;52.760;6.726;2022-09-30T04:11:37;3.92;;;3.63;;
59006;SDS011;44792;52.760;6.726;2022-09-30T04:14:02;3.30;;;3.00;;
59006;SDS011;44792;52.760;6.726;2022-09-30T04:16:29;3.40;;;3.20;;
59006;SDS011;44792;52.760;6.726;2022-09-30T04:18:56;3.67;;;3.20;;
59006;SDS011;44792;52.760;6.726;2022-09-30T04:21:22;3.67;;;3.38;;
59006;SDS011;44792;52.760;6.726;2022-09-30T04:23:47;3.40;;;3.20;;
59006;SDS011;44792;52.760;6.726;2022-09-30T04:26:14;3.55;;;3.28;;
59006;SDS011;44792;52.760;6.726;2022-09-30T04:28:42;3.88;;;3.58;;
59006;SDS011;44792;52.760;6.726;2022-09-30T04:31:08;4.50;;;4.10;;
59006;SDS011;44792;52.760;6.726;2022-09-30T04:33:35;4.43;;;4.03;;
59006;SDS011;44792;52.760;6.726;2022-09-30T04:36:02;4.65;;;4.25;;
59006;SDS011;44792;52.760;6.726;2022-09-30T04:38:28;6.95;;;4.40;;
59006;SDS011;44792;52.760;6.726;2022-09-30T04:40:55;4.32;;;3.92;;
59006;SDS011;44792;52.760;6.726;2022-09-30T04:43:21;4.50;;;3.88;;
59006;SDS011;44792;52.760;6.726;2022-09-30T04:45:48;4.43;;;4.03;;
59006;SDS011;44792;52.760;6.726;2022-09-30T04:48:15;4.05;;;3.65;;
59006;SDS011;44792;52.760;6.726;2022-09-30T04:50:41;4.50;;;3.88;;
59006;SDS011;44792;52.760;6.726;2022-09-30T04:53:10;4.50;;;4.15;;
59006;SDS011;44792;52.760;6.726;2022-09-30T04:55:38;3.83;;;3.50;;
59006;SDS011;44792;52.760;6.726;2022-09-30T04:58:04;4.10;;;3.70;;
59006;SDS011;44792;52.760;6.726;2022-09-30T05:00:30;4.85;;;3.20;;
59006;SDS011;44792;52.760;6.726;2022-09-30T05:02:55;5.25;;;3.50;;
59006;SDS011;44792;52.760;6.726;2022-09-30T05:05:21;4.00;;;3.42;;
59006;SDS011;44792;52.760;6.726;2022-09-30T05:07:47;4.55;;;4.15;;
59006;SDS011;44792;52.760;6.726;2022-09-30T05:10:13;3.63;;;3.38;;
59006;SDS011;44792;52.760;6.726;2022-09-30T05:12:39;3.95;;;3.65;;
59006;SDS011;44792;52.760;6.726;2022-09-30T05:15:05;3.90;;;3.60;;
59006;SDS011;44792;52.760;6.726;2022-09-30T05:17:31;3.53;;;3.22;;
59006;SDS011;44792;52.760;6.726;2022-09-30T05:19:57;4.32;;;3.97;;
59006;SDS011;44792;52.760;6.726;2022-09-30T05:22:23;3.67;;;3.47;;
59006;SDS011;44792;52.760;6.726;2022-09-30T05:24:51;3.83;;;3.53;;
59006;SDS011;44792;52.760;6.726;2022-09-30T05:27:17;3.95;;;3.65;;
59006;SDS011;44792;52.760;6.726;2022-09-30T05:29:43;4.07;;;3.58;;
59006;SDS011;44792;52.760;6.726;2022-09-30T05:32:09;4.10;;;3.70;;
59006;SDS011;44792;52.760;6.726;2022-09-30T05:34:34;5.45;;;3.67;;
59006;SDS011;44792;52.760;6.726;2022-09-30T05:37:01;5.55;;;3.70;;
59006;SDS011;44792;52.760;6.726;2022-09-30T05:39:26;4.15;;;3.60;;
59006;SDS011;44792;52.760;6.726;2022-09-30T05:41:52;4.10;;;3.80;;
59006;SDS011;44792;52.760;6.726;2022-09-30T05:44:19;3.70;;;3.40;;
59006;SDS011;44792;52.760;6.726;2022-09-30T05:46:45;4.07;;;3.65;;
59006;SDS011;44792;52.760;6.726;2022-09-30T05:49:11;3.38;;;3.17;;
59006;SDS011;44792;52.760;6.726;2022-09-30T05:51:36;3.78;;;3.47;;
59006;SDS011;44792;52.760;6.726;2022-09-30T05:54:02;3.50;;;3.20;;
59006;SDS011;44792;52.760;6.726;2022-09-30T05:56:27;4.38;;;3.97;;
59006;SDS011;44792;52.760;6.726;2022-09-30T05:58:53;5.25;;;3.42;;
59006;SDS011;44792;52.760;6.726;2022-09-30T06:01:18;4.70;;;4.32;;
59006;SDS011;44792;52.760;6.726;2022-09-30T06:03:44;4.80;;;4.10;;
59006;SDS011;44792;52.760;6.726;2022-09-30T06:06:11;4.32;;;3.97;;
59006;SDS011;44792;52.760;6.726;2022-09-30T06:08:37;4.07;;;3.67;;
59006;SDS011;44792;52.760;6.726;2022-09-30T06:11:08;4.07;;;3.65;;
59006;SDS011;44792;52.760;6.726;2022-09-30T06:13:35;5.22;;;4.07;;
59006;SDS011;44792;52.760;6.726;2022-09-30T06:16:02;3.88;;;3.58;;
59006;SDS011;44792;52.760;6.726;2022-09-30T06:18:29;3.90;;;3.60;;
59006;SDS011;44792;52.760;6.726;2022-09-30T06:20:58;5.18;;;4.00;;
59006;SDS011;44792;52.760;6.726;2022-09-30T06:23:25;4.70;;;3.80;;
59006;SDS011;44792;52.760;6.726;2022-09-30T06:25:51;4.00;;;3.70;;
59006;SDS011;44792;52.760;6.726;2022-09-30T06:28:18;4.32;;;3.92;;
59006;SDS011;44792;52.760;6.726;2022-09-30T06:30:44;6.05;;;4.50;;
59006;SDS011;44792;52.760;6.726;2022-09-30T06:33:11;5.28;;;4.78;;
59006;SDS011;44792;52.760;6.726;2022-09-30T06:35:37;6.13;;;5.53;;
59006;SDS011;44792;52.760;6.726;2022-09-30T06:38:05;7.88;;;5.57;;
59006;SDS011;44792;52.760;6.726;2022-09-30T06:40:30;9.93;;;6.78;;
59006;SDS011;44792;52.760;6.726;2022-09-30T06:42:59;7.28;;;6.43;;
59006;SDS011;44792;52.760;6.726;2022-09-30T06:45:26;8.77;;;7.50;;
59006;SDS011;44792;52.760;6.726;2022-09-30T06:47:56;9.00;;;7.90;;
59006;SDS011;44792;52.760;6.726;2022-09-30T06:50:22;8.57;;;7.45;;
59006;SDS011;44792;52.760;6.726;2022-09-30T06:52:47;12.65;;;7.70;;
59006;SDS011;44792;52.760;6.726;2022-09-30T06:55:13;8.48;;;7.65;;
59006;SDS011;44792;52.760;6.726;2022-09-30T06:57:41;8.35;;;7.18;;
59006;SDS011;44792;52.760;6.726;2022-09-30T07:00:09;10.57;;;8.75;;
59006;SDS011;44792;52.760;6.726;2022-09-30T07:02:35;9.25;;;8.30;;
59006;SDS011;44792;52.760;6.726;2022-09-30T07:05:01;11.80;;;8.52;;
59006;SDS011;44792;52.760;6.726;2022-09-30T07:07:27;9.40;;;8.40;;
59006;SDS011;44792;52.760;6.726;2022-09-30T07:09:53;10.68;;;8.10;;
59006;SDS011;44792;52.760;6.726;2022-09-30T07:12:19;10.52;;;9.05;;
59006;SDS011;44792;52.760;6.726;2022-09-30T07:14:44;10.60;;;8.70;;
59006;SDS011;44792;52.760;6.726;2022-09-30T07:17:10;10.65;;;9.20;;
59006;SDS011;44792;52.760;6.726;2022-09-30T07:19:35;11.40;;;9.15;;
59006;SDS011;44792;52.760;6.726;2022-09-30T07:22:01;14.00;;;9.35;;
59006;SDS011;44792;52.760;6.726;2022-09-30T07:24:45;13.23;;;9.18;;
59006;SDS011;44792;52.760;6.726;2022-09-30T07:27:11;13.35;;;8.82;;
59006;SDS011;44792;52.760;6.726;2022-09-30T07:29:38;11.65;;;9.77;;
59006;SDS011;44792;52.760;6.726;2022-09-30T07:32:05;10.40;;;9.30;;
59006;SDS011;44792;52.760;6.726;2022-09-30T07:34:31;9.98;;;8.35;;
59006;SDS011;44792;52.760;6.726;2022-09-30T07:36:57;12.90;;;10.25;;
59006;SDS011;44792;52.760;6.726;2022-09-30T07:39:22;12.32;;;9.85;;
59006;SDS011;44792;52.760;6.726;2022-09-30T07:41:48;11.10;;;9.90;;
59006;SDS011;44792;52.760;6.726;2022-09-30T07:44:14;12.23;;;9.13;;
59006;SDS011;44792;52.760;6.726;2022-09-30T07:46:40;11.00;;;8.65;;
59006;SDS011;44792;52.760;6.726;2022-09-30T07:49:10;10.82;;;7.93;;
59006;SDS011;44792;52.760;6.726;2022-09-30T07:51:39;11.10;;;9.32;;
59006;SDS011;44792;52.760;6.726;2022-09-30T07:54:14;12.35;;;9.52;;
59006;SDS011;44792;52.760;6.726;2022-09-30T07:56:42;13.73;;;9.45;;
59006;SDS011;44792;52.760;6.726;2022-09-30T07:59:09;15.23;;;8.98;;
59006;SDS011;44792;52.760;6.726;2022-09-30T08:01:35;14.02;;;8.70;;
59006;SDS011;44792;52.760;6.726;2022-09-30T08:04:02;12.63;;;10.40;;
59006;SDS011;44792;52.760;6.726;2022-09-30T08:06:30;11.98;;;9.07;;
59006;SDS011;44792;52.760;6.726;2022-09-30T08:08:57;11.20;;;10.00;;
59006;SDS011;44792;52.760;6.726;2022-09-30T08:11:24;14.68;;;9.80;;
59006;SDS011;44792;52.760;6.726;2022-09-30T08:13:50;12.75;;;9.77;;
59006;SDS011;44792;52.760;6.726;2022-09-30T08:16:17;13.32;;;9.43;;
59006;SDS011;44792;52.760;6.726;2022-09-30T08:18:44;11.85;;;10.35;;
59006;SDS011;44792;52.760;6.726;2022-09-30T08:21:09;16.23;;;9.73;;
59006;SDS011;44792;52.760;6.726;2022-09-30T08:23:35;15.63;;;10.20;;
59006;SDS011;44792;52.760;6.726;2022-09-30T08:26:04;13.13;;;9.65;;
59006;SDS011;44792;52.760;6.726;2022-09-30T08:28:35;13.95;;;10.48;;
59006;SDS011;44792;52.760;6.726;2022-09-30T08:31:12;18.77;;;10.15;;
59006;SDS011;44792;52.760;6.726;2022-09-30T08:33:40;13.18;;;10.07;;
59006;SDS011;44792;52.760;6.726;2022-09-30T08:36:07;12.02;;;9.98;;
59006;SDS011;44792;52.760;6.726;2022-09-30T08:38:34;15.75;;;10.55;;
59006;SDS011;44792;52.760;6.726;2022-09-30T08:41:04;15.95;;;10.88;;
59006;SDS011;44792;52.760;6.726;2022-09-30T08:46:38;14.65;;;9.27;;
59006;SDS011;44792;52.760;6.726;2022-09-30T08:49:29;10.85;;;9.27;;
59006;SDS011;44792;52.760;6.726;2022-09-30T08:52:14;13.52;;;9.73;;
59006;SDS011;44792;52.760;6.726;2022-09-30T08:54:45;10.55;;;9.45;;
59006;SDS011;44792;52.760;6.726;2022-09-30T08:57:15;12.40;;;9.98;;
59006;SDS011;44792;52.760;6.726;2022-09-30T08:59:43;12.43;;;9.73;;
59006;SDS011;44792;52.760;6.726;2022-09-30T09:02:23;16.10;;;9.65;;
59006;SDS011;44792;52.760;6.726;2022-09-30T09:04:58;10.20;;;8.98;;
59006;SDS011;44792;52.760;6.726;2022-09-30T09:07:31;10.10;;;9.07;;
59006;SDS011;44792;52.760;6.726;2022-09-30T09:10:33;11.70;;;7.68;;
59006;SDS011;44792;52.760;6.726;2022-09-30T09:15:43;10.73;;;9.10;;
59006;SDS011;44792;52.760;6.726;2022-09-30T09:21:07;12.32;;;9.35;;
59006;SDS011;44792;52.760;6.726;2022-09-30T09:23:39;10.73;;;8.98;;
59006;SDS011;44792;52.760;6.726;2022-09-30T09:26:05;11.50;;;8.95;;
59006;SDS011;44792;52.760;6.726;2022-09-30T09:28:34;12.82;;;9.43;;
59006;SDS011;44792;52.760;6.726;2022-09-30T09:31:12;11.40;;;9.85;;
59006;SDS011;44792;52.760;6.726;2022-09-30T09:36:11;14.82;;;9.10;;
59006;SDS011;44792;52.760;6.726;2022-09-30T09:39:08;12.00;;;9.18;;
59006;SDS011;44792;52.760;6.726;2022-09-30T09:41:42;9.75;;;8.10;;
59006;SDS011;44792;52.760;6.726;2022-09-30T09:44:26;14.38;;;8.52;;
59006;SDS011;44792;52.760;6.726;2022-09-30T09:49:33;10.00;;;8.02;;
59006;SDS011;44792;52.760;6.726;2022-09-30T09:54:29;11.70;;;8.35;;
59006;SDS011;44792;52.760;6.726;2022-09-30T09:57:04;11.73;;;9.10;;
59006;SDS011;44792;52.760;6.726;2022-09-30T09:59:33;10.45;;;9.35;;
59006;SDS011;44792;52.760;6.726;2022-09-30T10:01:59;14.35;;;8.75;;
59006;SDS011;44792;52.760;6.726;2022-09-30T10:04:25;13.00;;;10.10;;
59006;SDS011;44792;52.760;6.726;2022-09-30T10:06:58;14.30;;;10.27;;
59006;SDS011;44792;52.760;6.726;2022-09-30T10:17:17;14.85;;;11.55;;
59006;SDS011;44792;52.760;6.726;2022-09-30T10:19:51;17.33;;;12.70;;
59006;SDS011;44792;52.760;6.726;2022-09-30T10:22:19;16.98;;;13.32;;
59006;SDS011;44792;52.760;6.726;2022-09-30T10:24:49;17.08;;;12.95;;
59006;SDS011;44792;52.760;6.726;2022-09-30T10:29:54;16.67;;;12.52;;
59006;SDS011;44792;52.760;6.726;2022-09-30T10:32:20;14.77;;;11.75;;
59006;SDS011;44792;52.760;6.726;2022-09-30T10:34:48;15.45;;;12.20;;
59006;SDS011;44792;52.760;6.726;2022-09-30T10:37:20;14.60;;;12.48;;
59006;SDS011;44792;52.760;6.726;2022-09-30T10:42:25;14.77;;;10.77;;
59006;SDS011;44792;52.760;6.726;2022-09-30T10:44:55;12.27;;;9.50;;
59006;SDS011;44792;52.760;6.726;2022-09-30T10:47:26;13.27;;;9.90;;
59006;SDS011;44792;52.760;6.726;2022-09-30T10:52:32;11.63;;;9.05;;
59006;SDS011;44792;52.760;6.726;2022-09-30T10:55:05;12.57;;;8.00;;
59006;SDS011;44792;52.760;6.726;2022-09-30T10:57:36;8.50;;;7.03;;
59006;SDS011;44792;52.760;6.726;2022-09-30T11:05:28;5.40;;;4.55;;
59006;SDS011;44792;52.760;6.726;2022-09-30T11:07:58;9.52;;;7.20;;
59006;SDS011;44792;52.760;6.726;2022-09-30T11:10:50;10.32;;;5.75;;
59006;SDS011;44792;52.760;6.726;2022-09-30T11:16:11;7.77;;;6.30;;
59006;SDS011;44792;52.760;6.726;2022-09-30T11:21:25;12.13;;;8.25;;
59006;SDS011;44792;52.760;6.726;2022-09-30T11:23:57;11.00;;;8.73;;
59006;SDS011;44792;52.760;6.726;2022-09-30T11:29:49;12.60;;;10.13;;
59006;SDS011;44792;52.760;6.726;2022-09-30T11:35:02;15.02;;;10.18;;
59006;SDS011;44792;52.760;6.726;2022-09-30T11:38:06;13.55;;;9.85;;
59006;SDS011;44792;52.760;6.726;2022-09-30T11:43:43;14.93;;;8.45;;
59006;SDS011;44792;52.760;6.726;2022-09-30T11:46:37;11.38;;;9.00;;
59006;SDS011;44792;52.760;6.726;2022-09-30T11:49:26;11.32;;;9.13;;
59006;SDS011;44792;52.760;6.726;2022-09-30T11:52:18;12.05;;;8.48;;
59006;SDS011;44792;52.760;6.726;2022-09-30T11:55:10;10.00;;;7.82;;
59006;SDS011;44792;52.760;6.726;2022-09-30T12:00:18;11.88;;;8.38;;
59006;SDS011;44792;52.760;6.726;2022-09-30T12:02:49;14.07;;;10.40;;
59006;SDS011;44792;52.760;6.726;2022-09-30T12:05:18;13.38;;;9.38;;
59006;SDS011;44792;52.760;6.726;2022-09-30T12:07:56;11.35;;;9.10;;
59006;SDS011;44792;52.760;6.726;2022-09-30T12:10:33;12.02;;;9.23;;
59006;SDS011;44792;52.760;6.726;2022-09-30T12:13:16;11.88;;;9.10;;
59006;SDS011;44792;52.760;6.726;2022-09-30T12:15:57;11.20;;;7.82;;
59006;SDS011;44792;52.760;6.726;2022-09-30T12:21:16;11.02;;;7.30;;
59006;SDS011;44792;52.760;6.726;2022-09-30T12:23:49;9.50;;;7.10;;
59006;SDS011;44792;52.760;6.726;2022-09-30T12:26:22;10.02;;;7.15;;
59006;SDS011;44792;52.760;6.726;2022-09-30T12:28:55;9.73;;;7.07;;
59006;SDS011;44792;52.760;6.726;2022-09-30T12:31:58;8.68;;;7.45;;
59006;SDS011;44792;52.760;6.726;2022-09-30T12:34:44;14.48;;;8.52;;
59006;SDS011;44792;52.760;6.726;2022-09-30T12:37:24;11.05;;;8.20;;
59006;SDS011;44792;52.760;6.726;2022-09-30T12:45:38;10.80;;;7.72;;
59006;SDS011;44792;52.760;6.726;2022-09-30T12:48:32;11.95;;;8.13;;
59006;SDS011;44792;52.760;6.726;2022-09-30T12:51:05;9.15;;;7.22;;
59006;SDS011;44792;52.760;6.726;2022-09-30T12:53:32;10.98;;;8.40;;
59006;SDS011;44792;52.760;6.726;2022-09-30T12:56:08;13.52;;;8.70;;
59006;SDS011;44792;52.760;6.726;2022-09-30T12:58:40;14.40;;;9.65;;
59006;SDS011;44792;52.760;6.726;2022-09-30T13:01:15;12.02;;;9.68;;
59006;SDS011;44792;52.760;6.726;2022-09-30T13:03:50;12.77;;;10.98;;
59006;SDS011;44792;52.760;6.726;2022-09-30T13:14:34;13.05;;;9.20;;
59006;SDS011;44792;52.760;6.726;2022-09-30T13:30:29;15.52;;;10.55;;
59006;SDS011;44792;52.760;6.726;2022-09-30T13:40:44;13.40;;;10.60;;
59006;SDS011;44792;52.760;6.726;2022-09-30T13:43:18;14.45;;;9.80;;
59006;SDS011;44792;52.760;6.726;2022-09-30T13:46:03;12.15;;;10.85;;
59006;SDS011;44792;52.760;6.726;2022-09-30T13:48:56;18.13;;;10.63;;
59006;SDS011;44792;52.760;6.726;2022-09-30T13:51:26;16.88;;;11.05;;
59006;SDS011;44792;52.760;6.726;2022-09-30T13:53:57;13.50;;;10.18;;
59006;SDS011;44792;52.760;6.726;2022-09-30T13:56:28;13.50;;;9.80;;
59006;SDS011;44792;52.760;6.726;2022-09-30T14:01:32;15.95;;;10.77;;
59006;SDS011;44792;52.760;6.726;2022-09-30T14:12:56;14.98;;;11.80;;
59006;SDS011;44792;52.760;6.726;2022-09-30T14:24:12;15.40;;;11.68;;
59006;SDS011;44792;52.760;6.726;2022-09-30T14:26:50;16.20;;;11.00;;
59006;SDS011;44792;52.760;6.726;2022-09-30T14:32:30;16.23;;;13.32;;
59006;SDS011;44792;52.760;6.726;2022-09-30T14:35:03;13.63;;;11.90;;
59006;SDS011;44792;52.760;6.726;2022-09-30T14:37:35;15.95;;;13.05;;
59006;SDS011;44792;52.760;6.726;2022-09-30T14:40:15;15.38;;;12.93;;
59006;SDS011;44792;52.760;6.726;2022-09-30T14:42:49;15.98;;;12.48;;
59006;SDS011;44792;52.760;6.726;2022-09-30T14:45:20;16.30;;;11.77;;
59006;SDS011;44792;52.760;6.726;2022-09-30T14:47:50;12.50;;;11.20;;
59006;SDS011;44792;52.760;6.726;2022-09-30T14:50:20;12.60;;;10.82;;
59006;SDS011;44792;52.760;6.726;2022-09-30T14:52:50;12.65;;;10.52;;
59006;SDS011;44792;52.760;6.726;2022-09-30T14:58:18;14.45;;;11.85;;
59006;SDS011;44792;52.760;6.726;2022-09-30T15:00:57;16.40;;;10.50;;
59006;SDS011;44792;52.760;6.726;2022-09-30T15:03:29;15.68;;;10.60;;
59006;SDS011;44792;52.760;6.726;2022-09-30T15:06:00;12.93;;;9.75;;
59006;SDS011;44792;52.760;6.726;2022-09-30T15:08:26;12.32;;;9.48;;
59006;SDS011;44792;52.760;6.726;2022-09-30T15:10:53;11.80;;;10.02;;
59006;SDS011;44792;52.760;6.726;2022-09-30T15:13:23;12.40;;;9.73;;
59006;SDS011;44792;52.760;6.726;2022-09-30T15:15:51;14.57;;;9.40;;
59006;SDS011;44792;52.760;6.726;2022-09-30T15:18:24;11.10;;;8.98;;
59006;SDS011;44792;52.760;6.726;2022-09-30T15:20:56;12.63;;;8.93;;
59006;SDS011;44792;52.760;6.726;2022-09-30T15:23:25;9.82;;;8.82;;
59006;SDS011;44792;52.760;6.726;2022-09-30T15:25:53;13.30;;;9.43;;
59006;SDS011;44792;52.760;6.726;2022-09-30T15:28:19;11.75;;;9.80;;
59006;SDS011;44792;52.760;6.726;2022-09-30T15:30:45;11.25;;;9.50;;
59006;SDS011;44792;52.760;6.726;2022-09-30T15:33:12;13.70;;;9.30;;
59006;SDS011;44792;52.760;6.726;2022-09-30T15:35:42;13.27;;;8.27;;
59006;SDS011;44792;52.760;6.726;2022-09-30T15:38:09;14.32;;;8.80;;
59006;SDS011;44792;52.760;6.726;2022-09-30T15:40:45;12.75;;;8.52;;
59006;SDS011;44792;52.760;6.726;2022-09-30T15:43:31;11.02;;;8.35;;
59006;SDS011;44792;52.760;6.726;2022-09-30T15:48:54;9.60;;;7.85;;
59006;SDS011;44792;52.760;6.726;2022-09-30T15:56:56;10.35;;;7.30;;
59006;SDS011;44792;52.760;6.726;2022-09-30T16:02:22;10.25;;;7.55;;
59006;SDS011;44792;52.760;6.726;2022-09-30T16:04:51;8.73;;;6.93;;
59006;SDS011;44792;52.760;6.726;2022-09-30T16:07:18;7.35;;;6.20;;
59006;SDS011;44792;52.760;6.726;2022-09-30T16:09:48;12.50;;;7.18;;
59006;SDS011;44792;52.760;6.726;2022-09-30T16:14:58;10.38;;;7.00;;
59006;SDS011;44792;52.760;6.726;2022-09-30T16:17:32;7.40;;;6.57;;
59006;SDS011;44792;52.760;6.726;2022-09-30T16:25:20;11.75;;;5.28;;
59006;SDS011;44792;52.760;6.726;2022-09-30T16:28:08;6.75;;;5.28;;
59006;SDS011;44792;52.760;6.726;2022-09-30T16:33:06;9.00;;;5.32;;
59006;SDS011;44792;52.760;6.726;2022-09-30T16:35:31;7.97;;;5.43;;
59006;SDS011;44792;52.760;6.726;2022-09-30T16:37:59;8.40;;;5.82;;
59006;SDS011;44792;52.760;6.726;2022-09-30T16:40:26;6.38;;;5.68;;
59006;SDS011;44792;52.760;6.726;2022-09-30T16:42:53;8.68;;;5.80;;
59006;SDS011;44792;52.760;6.726;2022-09-30T16:45:19;10.00;;;5.95;;
59006;SDS011;44792;52.760;6.726;2022-09-30T16:47:45;8.00;;;6.20;;
59006;SDS011;44792;52.760;6.726;2022-09-30T16:50:19;7.75;;;6.75;;
59006;SDS011;44792;52.760;6.726;2022-09-30T16:52:49;7.85;;;6.80;;
59006;SDS011;44792;52.760;6.726;2022-09-30T16:55:15;8.27;;;7.28;;
59006;SDS011;44792;52.760;6.726;2022-09-30T16:57:41;8.07;;;6.57;;
59006;SDS011;44792;52.760;6.726;2022-09-30T17:00:09;12.40;;;6.95;;
59006;SDS011;44792;52.760;6.726;2022-09-30T17:02:37;12.07;;;8.50;;
59006;SDS011;44792;52.760;6.726;2022-09-30T17:05:03;11.15;;;8.18;;
59006;SDS011;44792;52.760;6.726;2022-09-30T17:07:29;10.10;;;8.18;;
59006;SDS011;44792;52.760;6.726;2022-09-30T17:09:55;11.40;;;7.75;;
59006;SDS011;44792;52.760;6.726;2022-09-30T17:12:20;9.35;;;7.15;;
59006;SDS011;44792;52.760;6.726;2022-09-30T17:14:46;10.13;;;7.35;;
59006;SDS011;44792;52.760;6.726;2022-09-30T17:17:11;10.07;;;7.22;;
59006;SDS011;44792;52.760;6.726;2022-09-30T17:19:37;7.95;;;6.90;;
59006;SDS011;44792;52.760;6.726;2022-09-30T17:22:02;12.73;;;7.53;;
59006;SDS011;44792;52.760;6.726;2022-09-30T17:24:29;8.52;;;7.32;;
59006;SDS011;44792;52.760;6.726;2022-09-30T17:26:55;10.25;;;7.18;;
59006;SDS011;44792;52.760;6.726;2022-09-30T17:29:21;8.43;;;6.85;;
59006;SDS011;44792;52.760;6.726;2022-09-30T17:31:47;8.80;;;6.63;;
59006;SDS011;44792;52.760;6.726;2022-09-30T17:34:13;8.75;;;6.60;;
59006;SDS011;44792;52.760;6.726;2022-09-30T17:36:38;7.85;;;6.45;;
59006;SDS011;44792;52.760;6.726;2022-09-30T17:39:04;7.78;;;6.45;;
59006;SDS011;44792;52.760;6.726;2022-09-30T17:41:31;9.40;;;6.38;;
59006;SDS011;44792;52.760;6.726;2022-09-30T17:44:16;8.93;;;6.38;;
59006;SDS011;44792;52.760;6.726;2022-09-30T17:46:43;9.80;;;6.30;;
59006;SDS011;44792;52.760;6.726;2022-09-30T17:49:10;7.05;;;5.93;;
59006;SDS011;44792;52.760;6.726;2022-09-30T17:51:39;9.75;;;6.20;;
59006;SDS011;44792;52.760;6.726;2022-09-30T17:54:05;8.65;;;6.50;;
59006;SDS011;44792;52.760;6.726;2022-09-30T17:56:32;10.48;;;6.45;;
59006;SDS011;44792;52.760;6.726;2022-09-30T17:58:58;8.15;;;5.70;;
59006;SDS011;44792;52.760;6.726;2022-09-30T18:01:25;11.27;;;5.80;;
59006;SDS011;44792;52.760;6.726;2022-09-30T18:03:51;6.97;;;5.68;;
59006;SDS011;44792;52.760;6.726;2022-09-30T18:06:17;6.95;;;5.43;;
59006;SDS011;44792;52.760;6.726;2022-09-30T18:08:47;9.10;;;5.35;;
59006;SDS011;44792;52.760;6.726;2022-09-30T18:11:23;11.45;;;5.38;;
59006;SDS011;44792;52.760;6.726;2022-09-30T18:13:53;8.40;;;5.45;;
59006;SDS011;44792;52.760;6.726;2022-09-30T18:16:22;9.55;;;5.32;;
59006;SDS011;44792;52.760;6.726;2022-09-30T18:18:48;8.18;;;5.85;;